createdAt,value
2023-01-19T00:00:28.058Z,3.13
2023-01-19T00:01:29.908Z,2.95
2023-01-19T00:02:31.968Z,3.35
2023-01-19T00:03:35.374Z,3.95
2023-01-19T00:04:37.194Z,3.25
2023-01-19T00:05:38.967Z,2.20
2023-01-19T00:06:40.768Z,3.42
2023-01-19T00:07:42.631Z,2.65
2023-01-19T00:08:46.157Z,3.10
2023-01-19T00:09:48.588Z,3.13
2023-01-19T00:10:51.362Z,3.03
2023-01-19T00:11:53.139Z,2.20
2023-01-19T00:12:54.830Z,2.70
2023-01-19T00:13:56.774Z,2.60
2023-01-19T00:14:58.554Z,2.60
2023-01-19T00:16:00.353Z,2.40
2023-01-19T00:17:02.161Z,2.33
2023-01-19T00:18:04.206Z,3.47
2023-01-19T00:19:07.031Z,3.50
2023-01-19T00:20:09.987Z,3.55
2023-01-19T00:21:12.428Z,3.42
2023-01-19T00:22:14.175Z,2.47
2023-01-19T00:23:17.023Z,3.72
2023-01-19T00:24:18.948Z,3.83
2023-01-19T00:25:20.631Z,3.20
2023-01-19T00:26:22.631Z,3.78
2023-01-19T00:27:24.998Z,2.50
2023-01-19T00:28:26.761Z,2.58
2023-01-19T00:29:30.944Z,2.70
2023-01-19T00:30:32.811Z,3.17
2023-01-19T00:31:34.686Z,3.22
2023-01-19T00:32:36.503Z,2.33
2023-01-19T00:33:38.328Z,2.10
2023-01-19T00:34:49.286Z,3.47
2023-01-19T00:35:53.024Z,2.45
2023-01-19T00:36:56.023Z,2.53
2023-01-19T00:37:58.600Z,2.80
2023-01-19T00:39:00.966Z,2.17
2023-01-19T00:40:02.818Z,3.78
2023-01-19T00:41:04.740Z,2.63
2023-01-19T00:42:25.189Z,2.42
2023-01-19T00:43:28.680Z,2.65
2023-01-19T00:44:30.651Z,2.85
2023-01-19T00:45:33.838Z,1.98
2023-01-19T00:46:38.982Z,3.08
2023-01-19T00:47:42.453Z,2.83
2023-01-19T00:48:45.081Z,3.08
2023-01-19T00:49:46.797Z,2.60
2023-01-19T00:50:49.229Z,2.97
2023-01-19T00:51:51.031Z,3.35
2023-01-19T00:52:54.818Z,3.75
2023-01-19T00:53:56.585Z,3.25
2023-01-19T00:54:58.411Z,2.45
2023-01-19T00:56:00.191Z,3.25
2023-01-19T00:57:03.442Z,3.30
2023-01-19T00:58:06.538Z,3.38
2023-01-19T00:59:08.834Z,4.03
2023-01-19T01:00:14.348Z,2.85
2023-01-19T01:01:16.187Z,2.83
2023-01-19T01:02:18.192Z,2.60
2023-01-19T01:03:20.116Z,2.63
2023-01-19T01:04:21.940Z,2.33
2023-01-19T01:05:23.833Z,3.15
2023-01-19T01:06:25.675Z,2.83
2023-01-19T01:07:27.447Z,3.25
2023-01-19T01:08:30.187Z,2.55
2023-01-19T01:09:33.615Z,2.70
2023-01-19T01:10:36.447Z,2.85
2023-01-19T01:11:39.929Z,2.40
2023-01-19T01:12:55.548Z,3.95
2023-01-19T01:14:00.190Z,2.53
2023-01-19T01:15:02.171Z,2.67
2023-01-19T01:16:04.390Z,2.63
2023-01-19T01:17:11.226Z,2.28
2023-01-19T01:18:12.993Z,2.47
2023-01-19T01:19:16.201Z,2.70
2023-01-19T01:20:20.462Z,1.70
2023-01-19T01:21:22.244Z,2.50
2023-01-19T01:22:24.023Z,1.70
2023-01-19T01:23:25.867Z,2.33
2023-01-19T01:24:27.903Z,1.67
2023-01-19T01:25:31.186Z,1.52
2023-01-19T01:26:32.993Z,1.58
2023-01-19T01:27:34.787Z,1.17
2023-01-19T01:28:36.554Z,2.28
2023-01-19T01:29:41.232Z,1.58
2023-01-19T01:30:44.578Z,1.20
2023-01-19T01:31:46.517Z,2.42
2023-01-19T01:32:49.274Z,1.95
2023-01-19T01:33:51.327Z,1.00
2023-01-19T01:34:54.079Z,0.82
2023-01-19T01:35:55.896Z,1.00
2023-01-19T01:36:57.635Z,0.80
2023-01-19T01:37:59.651Z,1.52
2023-01-19T01:39:01.469Z,1.15
2023-01-19T01:40:04.564Z,1.15
2023-01-19T01:41:06.851Z,1.00
2023-01-19T01:42:18.055Z,1.73
2023-01-19T01:43:21.545Z,0.90
2023-01-19T01:45:07.731Z,1.40
2023-01-19T01:46:10.114Z,1.30
2023-01-19T01:47:12.024Z,0.52
2023-01-19T01:48:19.696Z,1.10
2023-01-19T01:49:21.508Z,1.08
2023-01-19T01:50:26.471Z,1.33
2023-01-19T01:51:43.912Z,1.00
2023-01-19T01:53:07.606Z,1.45
2023-01-19T01:54:21.535Z,1.20
2023-01-19T01:55:24.467Z,0.98
2023-01-19T01:56:34.615Z,0.98
2023-01-19T01:57:39.304Z,1.05
2023-01-19T01:58:41.426Z,2.33
2023-01-19T01:59:46.736Z,1.55
2023-01-19T02:01:06.944Z,1.08
2023-01-19T02:02:36.260Z,1.25
2023-01-19T02:03:38.350Z,0.80
2023-01-19T02:04:44.482Z,0.95
2023-01-19T02:05:46.433Z,1.20
2023-01-19T02:07:07.399Z,1.13
2023-01-19T02:08:33.522Z,1.30
2023-01-19T02:09:56.904Z,0.68
2023-01-19T02:11:19.379Z,0.80
2023-01-19T02:12:41.183Z,1.13
2023-01-19T02:13:48.094Z,1.25
2023-01-19T02:14:50.014Z,1.30
2023-01-19T02:15:54.746Z,1.35
2023-01-19T02:16:56.647Z,0.93
2023-01-19T02:17:58.787Z,1.02
2023-01-19T02:19:01.319Z,1.10
2023-01-19T02:20:03.523Z,0.90
2023-01-19T02:21:18.970Z,1.70
2023-01-19T02:22:27.871Z,1.33
2023-01-19T02:23:39.719Z,1.00
2023-01-19T02:24:42.302Z,0.95
2023-01-19T02:25:44.421Z,1.10
2023-01-19T02:26:48.189Z,0.82
2023-01-19T02:27:52.300Z,1.30
2023-01-19T02:29:01.087Z,1.58
2023-01-19T02:30:03.840Z,1.83
2023-01-19T02:31:06.359Z,0.93
2023-01-19T02:32:08.535Z,0.93
2023-01-19T02:33:10.376Z,1.30
2023-01-19T02:34:16.427Z,1.45
2023-01-19T02:35:20.006Z,1.40
2023-01-19T02:36:25.970Z,1.10
2023-01-19T02:37:32.698Z,0.75
2023-01-19T02:38:35.988Z,1.10
2023-01-19T02:39:44.808Z,1.30
2023-01-19T02:40:49.049Z,0.60
2023-01-19T02:41:55.330Z,1.05
2023-01-19T02:43:00.945Z,1.00
2023-01-19T02:44:04.439Z,0.90
2023-01-19T02:45:10.536Z,1.58
2023-01-19T02:46:14.141Z,1.10
2023-01-19T02:47:16.229Z,1.08
2023-01-19T02:48:20.831Z,1.35
2023-01-19T02:49:23.446Z,1.00
2023-01-19T02:50:41.996Z,0.75
2023-01-19T02:51:44.658Z,0.90
2023-01-19T02:52:46.624Z,1.52
2023-01-19T02:54:13.211Z,1.05
2023-01-19T02:55:19.864Z,1.15
2023-01-19T02:56:55.279Z,0.80
2023-01-19T02:58:11.712Z,1.38
2023-01-19T02:59:19.422Z,0.70
2023-01-19T03:00:45.467Z,1.00
2023-01-19T03:01:59.497Z,0.65
2023-01-19T03:03:10.845Z,0.70
2023-01-19T03:04:15.987Z,0.70
2023-01-19T03:05:38.948Z,1.08
2023-01-19T03:06:53.954Z,1.08
2023-01-19T03:08:23.106Z,1.27
2023-01-19T03:09:55.760Z,1.10
2023-01-19T03:11:06.404Z,0.57
2023-01-19T03:12:14.154Z,0.90
2023-01-19T03:13:33.967Z,0.80
2023-01-19T03:14:42.590Z,0.93
2023-01-19T03:15:51.138Z,0.75
2023-01-19T03:16:59.289Z,0.65
2023-01-19T03:18:02.854Z,0.85
2023-01-19T03:19:19.194Z,1.67
2023-01-19T03:20:24.774Z,0.65
2023-01-19T03:21:28.271Z,1.17
2023-01-19T03:22:31.164Z,0.80
2023-01-19T03:23:36.586Z,0.93
2023-01-19T03:24:42.315Z,0.77
2023-01-19T03:25:46.570Z,1.30
2023-01-19T03:26:58.819Z,0.90
2023-01-19T03:28:02.164Z,1.20
2023-01-19T03:29:05.045Z,0.90
2023-01-19T03:30:29.369Z,1.10
2023-01-19T03:31:33.784Z,1.00
2023-01-19T03:32:44.573Z,1.10
2023-01-19T03:33:51.575Z,1.10
2023-01-19T03:34:54.890Z,1.00
2023-01-19T03:36:05.432Z,0.93
2023-01-19T03:37:10.138Z,0.52
2023-01-19T03:38:20.941Z,0.73
2023-01-19T03:39:24.594Z,1.02
2023-01-19T03:40:32.655Z,0.80
2023-01-19T03:41:35.681Z,0.90
2023-01-19T03:42:38.984Z,1.33
2023-01-19T03:43:41.473Z,0.60
2023-01-19T03:44:45.418Z,1.00
2023-01-19T03:45:47.769Z,0.75
2023-01-19T03:46:51.508Z,1.00
2023-01-19T03:47:55.127Z,1.45
2023-01-19T03:48:58.387Z,0.70
2023-01-19T03:50:03.530Z,0.88
2023-01-19T03:51:08.502Z,1.00
2023-01-19T03:52:11.573Z,1.30
2023-01-19T03:53:16.575Z,1.13
2023-01-19T03:54:18.308Z,0.93
2023-01-19T03:55:20.234Z,1.65
2023-01-19T03:56:24.935Z,0.93
2023-01-19T03:57:27.081Z,1.48
2023-01-19T03:58:29.022Z,1.23
2023-01-19T03:59:31.905Z,1.00
2023-01-19T04:00:36.495Z,0.77
2023-01-19T04:01:38.797Z,1.33
2023-01-19T04:02:40.776Z,1.25
2023-01-19T04:03:43.244Z,1.25
2023-01-19T04:04:45.304Z,1.00
2023-01-19T04:05:48.101Z,0.90
2023-01-19T04:06:49.895Z,0.90
2023-01-19T04:07:52.966Z,1.65
2023-01-19T04:08:55.001Z,0.80
2023-01-19T04:09:56.844Z,0.82
2023-01-19T04:10:59.143Z,0.95
2023-01-19T04:12:01.961Z,0.93
2023-01-19T04:13:04.737Z,0.45
2023-01-19T04:14:06.482Z,1.45
2023-01-19T04:15:08.444Z,1.13
2023-01-19T04:16:11.945Z,0.60
2023-01-19T04:17:14.088Z,0.80
2023-01-19T04:18:16.234Z,1.52
2023-01-19T04:19:18.337Z,0.80
2023-01-19T04:20:21.812Z,1.00
2023-01-19T04:21:23.770Z,1.02
2023-01-19T04:22:25.662Z,0.73
2023-01-19T04:23:27.962Z,1.00
2023-01-19T04:24:30.068Z,1.48
2023-01-19T04:25:32.011Z,0.60
2023-01-19T04:26:33.729Z,1.00
2023-01-19T04:27:36.430Z,1.00
2023-01-19T04:28:38.240Z,1.23
2023-01-19T04:29:40.249Z,0.73
2023-01-19T04:30:41.990Z,0.90
2023-01-19T04:31:43.901Z,1.40
2023-01-19T04:32:45.918Z,1.27
2023-01-19T04:33:47.689Z,1.00
2023-01-19T04:34:49.453Z,0.80
2023-01-19T04:35:54.393Z,1.13
2023-01-19T04:36:56.482Z,1.00
2023-01-19T04:37:58.309Z,1.13
2023-01-19T04:39:00.159Z,0.60
2023-01-19T04:40:02.125Z,1.20
2023-01-19T04:41:04.120Z,0.88
2023-01-19T04:42:06.422Z,1.10
2023-01-19T04:43:08.342Z,1.15
2023-01-19T04:44:10.849Z,1.33
2023-01-19T04:45:14.070Z,1.23
2023-01-19T04:46:15.856Z,1.10
2023-01-19T04:47:17.644Z,0.73
2023-01-19T04:48:19.898Z,1.33
2023-01-19T04:49:21.722Z,1.80
2023-01-19T04:50:23.627Z,1.13
2023-01-19T04:51:25.385Z,1.40
2023-01-19T04:52:35.123Z,1.67
2023-01-19T04:53:36.976Z,1.60
2023-01-19T04:54:38.723Z,1.95
2023-01-19T04:55:41.025Z,1.40
2023-01-19T04:56:42.921Z,0.93
2023-01-19T04:57:45.832Z,1.60
2023-01-19T04:58:47.532Z,2.05
2023-01-19T04:59:49.239Z,1.42
2023-01-19T05:00:52.762Z,1.10
2023-01-19T05:01:55.994Z,0.98
2023-01-19T05:02:58.194Z,1.55
2023-01-19T05:04:00.538Z,1.08
2023-01-19T05:05:03.163Z,0.77
2023-01-19T05:06:07.707Z,1.77
2023-01-19T05:07:10.388Z,0.88
2023-01-19T05:08:12.797Z,1.10
2023-01-19T05:09:15.368Z,2.35
2023-01-19T05:10:17.321Z,1.65
2023-01-19T05:11:19.076Z,0.70
2023-01-19T05:12:21.366Z,1.00
2023-01-19T05:13:23.481Z,1.20
2023-01-19T05:14:25.621Z,0.90
2023-01-19T05:15:27.904Z,1.55
2023-01-19T05:16:29.907Z,1.33
2023-01-19T05:17:31.832Z,1.00
2023-01-19T05:18:36.391Z,1.00
2023-01-19T05:19:38.387Z,0.80
2023-01-19T05:20:41.241Z,1.10
2023-01-19T05:21:43.040Z,1.13
2023-01-19T05:22:53.071Z,1.30
2023-01-19T05:23:55.307Z,0.73
2023-01-19T05:24:57.067Z,1.33
2023-01-19T05:26:02.317Z,1.33
2023-01-19T05:27:04.206Z,0.80
2023-01-19T05:28:06.158Z,1.05
2023-01-19T05:29:08.271Z,0.90
2023-01-19T05:30:10.793Z,1.40
2023-01-19T05:31:13.367Z,1.63
2023-01-19T05:32:15.252Z,1.45
2023-01-19T05:33:18.450Z,0.88
2023-01-19T05:34:20.328Z,0.70
2023-01-19T05:35:31.278Z,1.27
2023-01-19T05:36:37.196Z,0.70
2023-01-19T05:37:39.337Z,0.63
2023-01-19T05:38:42.610Z,1.10
2023-01-19T05:39:44.591Z,0.50
2023-01-19T05:40:46.611Z,0.98
2023-01-19T05:41:49.053Z,1.20
2023-01-19T05:42:50.879Z,1.20
2023-01-19T05:43:53.351Z,1.00
2023-01-19T05:44:55.187Z,0.90
2023-01-19T05:45:57.040Z,1.20
2023-01-19T05:46:59.040Z,1.75
2023-01-19T05:48:00.927Z,2.00
2023-01-19T05:49:05.134Z,1.65
2023-01-19T05:50:07.864Z,1.73
2023-01-19T05:51:12.168Z,1.40
2023-01-19T05:52:15.471Z,1.08
2023-01-19T05:53:17.426Z,1.63
2023-01-19T05:54:19.346Z,1.17
2023-01-19T05:55:21.693Z,0.60
2023-01-19T05:56:23.551Z,0.95
2023-01-19T05:57:25.726Z,1.42
2023-01-19T05:58:27.648Z,1.02
2023-01-19T05:59:29.831Z,1.20
2023-01-19T06:00:31.695Z,1.50
2023-01-19T06:01:36.538Z,1.48
2023-01-19T06:02:40.185Z,1.27
2023-01-19T06:03:41.865Z,1.70
2023-01-19T06:04:43.618Z,1.38
2023-01-19T06:05:45.494Z,0.75
2023-01-19T06:06:50.933Z,1.75
2023-01-19T06:07:53.780Z,1.73
2023-01-19T06:08:55.499Z,1.00
2023-01-19T06:09:57.552Z,1.35
2023-01-19T06:10:59.280Z,1.98
2023-01-19T06:12:01.482Z,1.08
2023-01-19T06:13:03.709Z,0.80
2023-01-19T06:14:05.755Z,1.15
2023-01-19T06:15:08.005Z,1.30
2023-01-19T06:16:12.205Z,1.35
2023-01-19T06:17:14.120Z,2.13
2023-01-19T06:18:16.085Z,2.05
2023-01-19T06:19:18.680Z,1.20
2023-01-19T06:20:20.948Z,1.08
2023-01-19T06:21:22.822Z,1.15
2023-01-19T06:22:24.697Z,1.35
2023-01-19T06:23:29.237Z,1.50
2023-01-19T06:24:33.515Z,2.53
2023-01-19T06:25:35.360Z,1.10
2023-01-19T06:26:37.417Z,1.45
2023-01-19T06:27:43.299Z,1.35
2023-01-19T06:28:45.294Z,1.80
2023-01-19T06:29:47.077Z,0.90
2023-01-19T06:30:50.816Z,1.65
2023-01-19T06:31:54.164Z,1.30
2023-01-19T06:32:55.955Z,1.70
2023-01-19T06:33:57.677Z,2.10
2023-01-19T06:34:59.414Z,1.50
2023-01-19T06:36:01.192Z,2.13
2023-01-19T06:37:03.948Z,1.20
2023-01-19T06:38:07.306Z,2.13
2023-01-19T06:39:09.813Z,1.30
2023-01-19T06:40:13.711Z,1.25
2023-01-19T06:41:16.187Z,0.98
2023-01-19T06:42:17.932Z,1.40
2023-01-19T06:43:20.436Z,1.60
2023-01-19T06:44:22.283Z,1.00
2023-01-19T06:45:24.072Z,1.30
2023-01-19T06:46:27.522Z,1.80
2023-01-19T06:47:29.842Z,2.08
2023-01-19T06:48:32.566Z,1.42
2023-01-19T06:49:35.784Z,1.20
2023-01-19T06:50:37.651Z,1.15
2023-01-19T06:51:39.531Z,1.50
2023-01-19T06:52:45.604Z,1.05
2023-01-19T06:53:47.456Z,2.35
2023-01-19T06:54:50.202Z,1.52
2023-01-19T06:55:52.005Z,1.17
2023-01-19T06:56:54.451Z,1.23
2023-01-19T06:57:58.654Z,1.38
2023-01-19T06:59:00.670Z,2.40
2023-01-19T07:00:05.249Z,1.75
2023-01-19T07:01:08.564Z,1.73
2023-01-19T07:02:26.233Z,1.05
2023-01-19T07:03:29.621Z,1.50
2023-01-19T07:04:31.855Z,1.55
2023-01-19T07:05:35.758Z,1.73
2023-01-19T07:06:37.835Z,1.52
2023-01-19T07:07:39.769Z,1.42
2023-01-19T07:08:41.684Z,1.05
2023-01-19T07:09:43.477Z,1.10
2023-01-19T07:11:23.119Z,1.83
2023-01-19T07:12:07.841Z,1.30
2023-01-19T07:13:09.969Z,1.77
2023-01-19T07:14:12.176Z,1.35
2023-01-19T07:15:19.485Z,1.67
2023-01-19T07:16:21.324Z,1.30
2023-01-19T07:17:23.135Z,1.33
2023-01-19T07:18:25.563Z,1.23
2023-01-19T07:19:27.571Z,1.70
2023-01-19T07:20:29.627Z,1.40
2023-01-19T07:21:31.419Z,1.30
2023-01-19T07:22:33.142Z,1.52
2023-01-19T07:23:35.253Z,1.63
2023-01-19T07:24:38.288Z,1.20
2023-01-19T07:25:40.557Z,1.45
2023-01-19T07:26:42.373Z,1.60
2023-01-19T07:27:45.074Z,1.70
2023-01-19T07:28:48.320Z,1.38
2023-01-19T07:29:50.137Z,1.80
2023-01-19T07:30:53.526Z,1.60
2023-01-19T07:31:55.858Z,2.55
2023-01-19T07:32:59.493Z,1.20
2023-01-19T07:34:01.463Z,2.47
2023-01-19T07:35:03.541Z,1.60
2023-01-19T07:36:05.532Z,1.55
2023-01-19T07:37:07.262Z,1.50
2023-01-19T07:38:09.038Z,2.63
2023-01-19T07:39:11.116Z,1.70
2023-01-19T07:40:13.145Z,2.13
2023-01-19T07:41:15.083Z,1.88
2023-01-19T07:42:17.098Z,2.00
2023-01-19T07:43:18.805Z,0.60
2023-01-19T07:44:20.614Z,1.77
2023-01-19T07:45:22.656Z,2.90
2023-01-19T07:46:27.173Z,2.22
2023-01-19T07:47:30.602Z,1.88
2023-01-19T07:48:32.719Z,1.63
2023-01-19T07:49:35.620Z,1.63
2023-01-19T07:50:37.549Z,3.17
2023-01-19T07:51:39.748Z,1.60
2023-01-19T07:52:42.470Z,1.40
2023-01-19T07:53:45.327Z,1.27
2023-01-19T07:54:50.817Z,1.00
2023-01-19T07:55:56.797Z,2.20
2023-01-19T07:57:00.801Z,1.98
2023-01-19T07:58:07.591Z,1.45
2023-01-19T07:59:10.788Z,1.20
2023-01-19T08:00:15.248Z,1.92
2023-01-19T08:01:17.067Z,1.48
2023-01-19T08:02:20.612Z,1.48
2023-01-19T08:03:22.852Z,1.52
2023-01-19T08:04:25.970Z,2.25
2023-01-19T08:05:29.163Z,2.33
2023-01-19T08:06:35.396Z,1.98
2023-01-19T08:07:37.313Z,1.98
2023-01-19T08:08:39.165Z,1.77
2023-01-19T08:09:41.234Z,2.17
2023-01-19T08:10:42.929Z,1.98
2023-01-19T08:11:44.702Z,1.30
2023-01-19T08:12:46.472Z,1.10
2023-01-19T08:13:48.320Z,1.73
2023-01-19T08:14:50.336Z,2.22
2023-01-19T08:15:53.511Z,1.98
2023-01-19T08:16:59.726Z,1.13
2023-01-19T08:18:05.904Z,2.42
2023-01-19T08:19:09.844Z,1.60
2023-01-19T08:20:13.668Z,1.30
2023-01-19T08:21:16.702Z,1.95
2023-01-19T08:22:18.542Z,1.20
2023-01-19T08:23:21.403Z,2.55
2023-01-19T08:24:28.893Z,1.33
2023-01-19T08:25:34.385Z,1.92
2023-01-19T08:26:37.668Z,1.95
2023-01-19T08:27:41.948Z,1.70
2023-01-19T08:28:43.817Z,1.40
2023-01-19T08:29:47.681Z,1.63
2023-01-19T08:31:08.034Z,2.25
2023-01-19T08:32:17.961Z,2.20
2023-01-19T08:33:42.700Z,1.40
2023-01-19T08:34:45.749Z,1.67
2023-01-19T08:35:50.076Z,2.70
2023-01-19T08:36:51.896Z,1.30
2023-01-19T08:38:15.753Z,1.60
2023-01-19T08:39:20.957Z,1.88
2023-01-19T08:40:22.796Z,1.80
2023-01-19T08:41:24.992Z,1.40
2023-01-19T08:42:28.664Z,1.60
2023-01-19T08:43:33.529Z,2.33
2023-01-19T08:44:39.386Z,1.17
2023-01-19T08:45:49.235Z,1.35
2023-01-19T08:46:52.809Z,2.63
2023-01-19T08:47:57.496Z,3.85
2023-01-19T08:48:59.257Z,1.30
2023-01-19T08:50:01.004Z,2.42
2023-01-19T08:51:02.910Z,1.88
2023-01-19T08:52:10.141Z,1.27
2023-01-19T08:53:13.569Z,1.20
2023-01-19T08:54:18.597Z,1.40
2023-01-19T08:55:20.592Z,1.48
2023-01-19T08:56:22.438Z,1.50
2023-01-19T08:57:24.392Z,1.40
2023-01-19T08:58:26.142Z,1.52
2023-01-19T08:59:28.259Z,2.08
2023-01-19T09:00:31.737Z,1.20
2023-01-19T09:01:33.608Z,1.30
2023-01-19T09:02:36.320Z,0.73
2023-01-19T09:03:38.279Z,1.80
2023-01-19T09:04:40.064Z,1.40
2023-01-19T09:05:42.009Z,1.50
2023-01-19T09:06:43.858Z,1.42
2023-01-19T09:07:47.959Z,1.13
2023-01-19T09:08:49.717Z,1.35
2023-01-19T09:09:51.556Z,1.58
2023-01-19T09:10:53.687Z,1.63
2023-01-19T09:11:56.255Z,1.77
2023-01-19T09:12:58.336Z,1.35
2023-01-19T09:14:01.432Z,2.65
2023-01-19T09:15:03.648Z,1.70
2023-01-19T09:16:07.819Z,1.98
2023-01-19T09:17:09.798Z,1.85
2023-01-19T09:18:14.215Z,1.13
2023-01-19T09:19:18.886Z,0.95
2023-01-19T09:20:23.516Z,1.58
2023-01-19T09:21:25.391Z,1.40
2023-01-19T09:22:27.156Z,1.30
2023-01-19T09:23:29.028Z,1.35
2023-01-19T09:24:31.855Z,1.15
2023-01-19T09:25:33.644Z,1.35
2023-01-19T09:26:36.886Z,2.08
2023-01-19T09:27:38.608Z,1.65
2023-01-19T09:28:40.636Z,2.78
2023-01-19T09:29:42.493Z,1.90
2023-01-19T09:30:44.911Z,1.10
2023-01-19T09:31:46.796Z,1.27
2023-01-19T09:32:48.603Z,1.63
2023-01-19T09:33:50.392Z,1.50
2023-01-19T09:34:53.930Z,1.60
2023-01-19T09:35:56.822Z,2.42
2023-01-19T09:36:58.754Z,1.42
2023-01-19T09:38:01.257Z,0.85
2023-01-19T09:39:03.621Z,0.70
2023-01-19T09:40:06.440Z,1.00
2023-01-19T09:41:22.172Z,1.63
2023-01-19T09:42:41.432Z,1.55
2023-01-19T09:43:47.567Z,1.63
2023-01-19T09:44:51.052Z,2.42
2023-01-19T09:46:00.281Z,2.55
2023-01-19T09:47:16.745Z,1.42
2023-01-19T09:48:45.973Z,1.88
2023-01-19T09:49:52.710Z,1.27
2023-01-19T09:50:58.454Z,1.38
2023-01-19T09:52:00.864Z,1.45
2023-01-19T09:53:13.951Z,2.08
2023-01-19T09:54:24.005Z,1.52
2023-01-19T09:55:27.268Z,1.38
2023-01-19T09:56:30.992Z,2.22
2023-01-19T09:57:33.816Z,2.00
2023-01-19T09:58:35.682Z,1.30
2023-01-19T09:59:39.114Z,1.60
2023-01-19T10:00:44.594Z,1.23
2023-01-19T10:02:15.588Z,1.73
2023-01-19T10:03:18.716Z,1.63
2023-01-19T10:04:41.681Z,1.58
2023-01-19T10:05:44.924Z,2.78
2023-01-19T10:06:48.624Z,1.42
2023-01-19T10:08:19.775Z,1.20
2023-01-19T10:09:49.192Z,0.85
2023-01-19T10:10:54.772Z,1.58
2023-01-19T10:12:04.553Z,1.30
2023-01-19T10:13:24.580Z,1.38
2023-01-19T10:14:43.409Z,1.40
2023-01-19T10:16:09.975Z,1.13
2023-01-19T10:17:37.156Z,1.35
2023-01-19T10:18:47.168Z,0.93
2023-01-19T10:19:53.596Z,1.92
2023-01-19T10:21:21.162Z,0.88
2023-01-19T10:22:26.975Z,1.00
2023-01-19T10:23:35.148Z,1.88
2023-01-19T10:24:42.745Z,1.40
2023-01-19T10:25:45.591Z,1.50
2023-01-19T10:26:53.349Z,2.10
2023-01-19T10:27:55.336Z,2.55
2023-01-19T10:29:08.428Z,1.27
2023-01-19T10:30:21.071Z,1.67
2023-01-19T10:31:24.541Z,1.10
2023-01-19T10:32:36.002Z,2.40
2023-01-19T10:33:39.710Z,1.13
2023-01-19T10:34:41.861Z,1.63
2023-01-19T10:35:45.438Z,2.08
2023-01-19T10:36:49.509Z,2.13
2023-01-19T10:38:02.132Z,2.60
2023-01-19T10:39:07.201Z,1.65
2023-01-19T10:40:12.663Z,1.20
2023-01-19T10:41:20.093Z,2.40
2023-01-19T10:42:22.080Z,2.38
2023-01-19T10:43:40.018Z,1.00
2023-01-19T10:44:43.316Z,0.77
2023-01-19T10:45:50.557Z,1.63
2023-01-19T10:46:55.269Z,2.05
2023-01-19T10:48:06.443Z,1.48
2023-01-19T10:49:27.962Z,1.23
2023-01-19T10:50:40.233Z,1.35
2023-01-19T10:51:49.330Z,1.52
2023-01-19T10:52:55.239Z,1.83
2023-01-19T10:54:04.412Z,2.50
2023-01-19T10:55:08.396Z,1.45
2023-01-19T10:56:22.110Z,1.95
2023-01-19T10:57:37.458Z,2.30
2023-01-19T10:58:40.562Z,1.55
2023-01-19T10:59:45.001Z,1.60
2023-01-19T11:00:46.786Z,1.33
2023-01-19T11:02:04.357Z,1.57
2023-01-19T11:03:28.530Z,1.23
2023-01-19T11:04:30.496Z,1.27
2023-01-19T11:05:33.983Z,1.55
2023-01-19T11:06:35.885Z,1.38
2023-01-19T11:07:37.908Z,2.65
2023-01-19T11:08:39.871Z,1.58
2023-01-19T11:09:42.181Z,1.20
2023-01-19T11:10:54.405Z,1.90
2023-01-19T11:11:57.712Z,1.20
2023-01-19T11:13:12.733Z,1.30
2023-01-19T11:14:19.502Z,0.70
2023-01-19T11:15:23.226Z,1.80
2023-01-19T11:16:31.806Z,2.03
2023-01-19T11:17:34.335Z,1.23
2023-01-19T11:18:39.839Z,1.27
2023-01-19T11:19:43.201Z,2.30
2023-01-19T11:20:50.574Z,1.70
2023-01-19T11:21:53.264Z,2.78
2023-01-19T11:23:22.286Z,1.73
2023-01-19T11:24:24.032Z,1.60
2023-01-19T11:25:31.057Z,2.15
2023-01-19T11:26:57.798Z,2.38
2023-01-19T11:28:00.518Z,1.65
2023-01-19T11:29:04.439Z,2.10
2023-01-19T11:30:34.803Z,1.02
2023-01-19T11:31:37.900Z,2.20
2023-01-19T11:32:39.841Z,1.85
2023-01-19T11:33:42.830Z,1.60
2023-01-19T11:34:44.688Z,1.98
2023-01-19T11:35:46.919Z,1.65
2023-01-19T11:37:01.497Z,0.98
2023-01-19T11:38:12.367Z,1.27
2023-01-19T11:39:26.521Z,0.93
2023-01-19T11:40:28.575Z,2.10
2023-01-19T11:41:38.515Z,1.23
2023-01-19T11:42:40.513Z,1.13
2023-01-19T11:43:49.038Z,1.60
2023-01-19T11:45:13.407Z,1.75
2023-01-19T11:46:16.505Z,1.55
2023-01-19T11:47:28.005Z,1.58
2023-01-19T11:48:36.113Z,1.52
2023-01-19T11:49:44.320Z,0.90
2023-01-19T11:50:47.597Z,1.13
2023-01-19T11:52:04.107Z,1.20
2023-01-19T11:53:25.438Z,2.15
2023-01-19T11:54:37.000Z,1.58
2023-01-19T11:55:55.933Z,1.05
2023-01-19T11:57:02.835Z,0.82
2023-01-19T11:58:05.676Z,1.20
2023-01-19T11:59:12.057Z,0.93
2023-01-19T12:00:26.311Z,1.65
2023-01-19T12:01:33.551Z,0.90
2023-01-19T12:02:47.480Z,1.13
2023-01-19T12:03:58.500Z,0.73
2023-01-19T12:05:06.524Z,1.77
2023-01-19T12:06:14.168Z,1.05
2023-01-19T12:07:22.136Z,1.52
2023-01-19T12:08:39.619Z,1.42
2023-01-19T12:09:45.224Z,1.05
2023-01-19T12:10:48.070Z,1.02
2023-01-19T12:12:04.063Z,1.02
2023-01-19T12:13:06.101Z,1.90
2023-01-19T12:14:21.439Z,1.35
2023-01-19T12:15:38.255Z,0.70
2023-01-19T12:16:42.555Z,1.23
2023-01-19T12:17:48.769Z,1.50
2023-01-19T12:19:20.974Z,1.65
2023-01-19T12:20:44.441Z,1.10
2023-01-19T12:21:49.640Z,1.27
2023-01-19T12:23:03.582Z,1.10
2023-01-19T12:24:36.648Z,1.65
2023-01-19T12:26:23.261Z,0.70
2023-01-19T12:27:41.713Z,0.80
2023-01-19T12:28:49.491Z,1.02
2023-01-19T12:29:53.970Z,1.60
2023-01-19T12:30:57.260Z,1.10
2023-01-19T12:32:14.545Z,1.35
2023-01-19T12:33:30.501Z,0.90
2023-01-19T12:34:42.540Z,1.23
2023-01-19T12:36:01.070Z,1.27
2023-01-19T12:37:06.532Z,0.80
2023-01-19T12:38:38.501Z,1.10
2023-01-19T12:39:48.612Z,1.20
2023-01-19T12:40:50.877Z,1.73
2023-01-19T12:42:14.089Z,1.10
2023-01-19T12:43:17.175Z,1.35
2023-01-19T12:44:24.313Z,1.42
2023-01-19T12:45:36.823Z,1.42
2023-01-19T12:47:06.298Z,1.35
2023-01-19T12:48:24.479Z,0.70
2023-01-19T12:49:43.902Z,1.30
2023-01-19T12:50:46.716Z,1.33
2023-01-19T12:51:50.270Z,0.85
2023-01-19T12:52:58.738Z,1.52
2023-01-19T12:54:03.519Z,1.15
2023-01-19T12:55:14.308Z,1.20
2023-01-19T12:56:18.747Z,1.00
2023-01-19T12:57:26.885Z,1.60
2023-01-19T12:58:29.265Z,1.40
2023-01-19T12:59:33.662Z,1.23
2023-01-19T13:00:41.045Z,1.65
2023-01-19T13:01:45.138Z,1.10
2023-01-19T13:03:07.989Z,1.42
2023-01-19T13:04:32.656Z,0.82
2023-01-19T13:05:55.624Z,1.30
2023-01-19T13:07:10.306Z,1.20
2023-01-19T13:08:18.878Z,1.58
2023-01-19T13:09:38.927Z,1.73
2023-01-19T13:10:55.679Z,1.30
2023-01-19T13:12:16.222Z,1.40
2023-01-19T13:13:19.188Z,1.17
2023-01-19T13:14:35.858Z,1.25
2023-01-19T13:15:39.071Z,0.82
2023-01-19T13:16:41.059Z,0.82
2023-01-19T13:17:54.413Z,1.48
2023-01-19T13:19:01.863Z,1.25
2023-01-19T13:20:27.609Z,1.73
2023-01-19T13:21:35.828Z,1.15
2023-01-19T13:23:05.962Z,1.10
2023-01-19T13:24:09.645Z,1.05
2023-01-19T13:25:28.363Z,1.75
2023-01-19T13:26:43.210Z,1.15
2023-01-19T13:27:45.301Z,0.90
2023-01-19T13:28:52.474Z,0.82
2023-01-19T13:29:54.590Z,1.50
2023-01-19T13:30:59.922Z,0.77
2023-01-19T13:32:17.727Z,0.82
2023-01-19T13:33:25.111Z,2.03
2023-01-19T13:34:28.919Z,1.88
2023-01-19T13:35:31.169Z,1.70
2023-01-19T13:36:39.322Z,1.17
2023-01-19T13:37:44.365Z,0.90
2023-01-19T13:38:50.388Z,1.15
2023-01-19T13:39:54.621Z,0.60
2023-01-19T13:40:59.624Z,1.38
2023-01-19T13:42:06.132Z,1.30
2023-01-19T13:43:19.372Z,1.05
2023-01-19T13:44:42.562Z,1.05
2023-01-19T13:45:51.104Z,1.20
2023-01-19T13:46:55.160Z,1.52
2023-01-19T13:48:01.253Z,1.00
2023-01-19T13:49:13.608Z,0.95
2023-01-19T13:50:29.982Z,0.70
2023-01-19T13:51:32.093Z,0.82
2023-01-19T13:52:34.995Z,1.63
2023-01-19T13:53:37.083Z,1.15
2023-01-19T13:54:51.162Z,1.52
2023-01-19T13:56:15.859Z,1.60
2023-01-19T13:57:28.008Z,0.98
2023-01-19T13:58:32.029Z,1.27
2023-01-19T13:59:34.279Z,0.80
2023-01-19T14:00:36.414Z,1.17
2023-01-19T14:01:42.189Z,0.98
2023-01-19T14:03:05.445Z,1.80
2023-01-19T14:04:32.973Z,0.85
2023-01-19T14:05:37.797Z,0.60
2023-01-19T14:06:48.266Z,0.75
2023-01-19T14:08:11.508Z,0.93
2023-01-19T14:09:19.892Z,1.13
2023-01-19T14:10:22.133Z,1.27
2023-01-19T14:11:24.350Z,1.48
2023-01-19T14:12:26.692Z,1.17
2023-01-19T14:13:33.993Z,1.63
2023-01-19T14:14:36.667Z,1.50
2023-01-19T14:15:40.943Z,1.50
2023-01-19T14:16:43.445Z,1.88
2023-01-19T14:17:45.525Z,1.15
2023-01-19T14:19:00.277Z,0.70
2023-01-19T14:20:02.286Z,0.65
2023-01-19T14:21:11.459Z,0.95
2023-01-19T14:22:13.440Z,0.75
2023-01-19T14:23:38.679Z,1.30
2023-01-19T14:24:40.734Z,0.85
2023-01-19T14:25:45.227Z,1.08
2023-01-19T14:26:48.829Z,1.50
2023-01-19T14:27:50.766Z,0.80
2023-01-19T14:28:53.417Z,1.55
2023-01-19T14:30:20.518Z,1.85
2023-01-19T14:31:25.109Z,1.50
2023-01-19T14:32:28.156Z,1.27
2023-01-19T14:33:45.359Z,1.95
2023-01-19T14:34:53.791Z,1.27
2023-01-19T14:35:55.662Z,0.90
2023-01-19T14:36:58.119Z,1.42
2023-01-19T14:38:00.040Z,1.67
2023-01-19T14:39:03.262Z,1.23
2023-01-19T14:40:11.803Z,1.33